Time;durP1;ratioP1;P1;durP2;ratioP2;P2;SDS_P1;SDS_P2;PMS_P1;PMS_P2;Temp;Humidity;BMP_temperature;BMP_pressure;BME280_temperature;BME280_humidity;BME280_pressure;Samples;Min_cycle;Max_cycle;Signal;HPM_P1;HPM_P2
2022/03/24 00:00:38;;;;;;;44.33;28.85;;;5.90;99.90;;;;;;4970904;28;20030;-52
2022/03/24 00:03:08;;;;;;;45.78;29.50;;;5.90;99.90;;;;;;4970628;28;20584;-50
2022/03/24 00:05:34;;;;;;;45.65;29.15;;;5.90;99.90;;;;;;4970400;28;20035;-52
2022/03/24 00:08:00;;;;;;;41.28;26.65;;;5.80;99.90;;;;;;4970759;28;20085;-51
2022/03/24 00:10:25;;;;;;;43.60;27.70;;;5.90;99.90;;;;;;4970798;28;20026;-51
2022/03/24 00:12:51;;;;;;;50.95;29.10;;;5.90;99.90;;;;;;4970430;28;20033;-52
2022/03/24 00:15:17;;;;;;;42.92;28.73;;;5.90;99.90;;;;;;4970795;28;20034;-52
2022/03/24 00:17:42;;;;;;;43.58;27.67;;;5.90;99.90;;;;;;4970424;28;20050;-52
2022/03/24 00:20:09;;;;;;;47.03;27.65;;;5.90;99.90;;;;;;4970882;28;20397;-51
2022/03/24 00:22:34;;;;;;;42.72;26.60;;;5.90;99.90;;;;;;4969263;28;20078;-53
2022/03/24 00:25:00;;;;;;;46.03;28.58;;;5.90;99.90;;;;;;4969025;28;20031;-51
2022/03/24 00:27:27;;;;;;;45.72;27.42;;;5.90;99.90;;;;;;4970211;28;20027;-50
2022/03/24 00:29:52;;;;;;;45.65;29.83;;;5.80;99.90;;;;;;4970369;28;20023;-51
2022/03/24 00:32:18;;;;;;;43.80;27.85;;;5.80;99.90;;;;;;4970259;28;20663;-51
2022/03/24 00:34:45;;;;;;;39.65;26.65;;;5.80;99.90;;;;;;4970682;28;20080;-49
2022/03/24 00:37:11;;;;;;;40.58;26.42;;;5.80;99.90;;;;;;4969730;28;20114;-53
2022/03/24 00:39:36;;;;;;;43.10;27.00;;;5.70;99.90;;;;;;4970438;28;20110;-50
2022/03/24 00:42:11;;;;;;;39.47;26.38;;;5.70;99.90;;;;;;4970250;28;20031;-50
2022/03/24 00:44:44;;;;;;;45.22;27.58;;;5.70;99.90;;;;;;4970430;28;20057;-50
2022/03/24 00:47:11;;;;;;;46.92;27.52;;;5.60;99.90;;;;;;4970254;28;20034;-51
2022/03/24 00:49:37;;;;;;;35.72;25.45;;;5.60;99.90;;;;;;4970111;28;20030;-50
2022/03/24 00:52:03;;;;;;;43.40;26.63;;;5.60;99.90;;;;;;4969871;28;20026;-52
2022/03/24 00:54:29;;;;;;;42.40;26.95;;;5.50;99.90;;;;;;4969925;28;20035;-51
2022/03/24 00:56:54;;;;;;;42.03;26.95;;;5.50;99.90;;;;;;4970360;28;20050;-52
2022/03/24 00:59:22;;;;;;;44.92;26.27;;;5.50;99.90;;;;;;4970028;28;20078;-51
2022/03/24 01:01:48;;;;;;;44.17;26.55;;;5.40;99.90;;;;;;4970294;28;20524;-51
2022/03/24 01:04:13;;;;;;;40.35;26.27;;;5.40;99.90;;;;;;4969669;28;20066;-52
2022/03/24 01:06:39;;;;;;;44.85;26.60;;;5.30;99.90;;;;;;4970152;28;20031;-54
2022/03/24 01:09:05;;;;;;;45.25;28.15;;;5.30;99.90;;;;;;4969964;28;20038;-52
2022/03/24 01:11:31;;;;;;;39.83;25.95;;;5.20;99.90;;;;;;4970624;28;20501;-53
2022/03/24 01:13:57;;;;;;;40.90;27.13;;;5.20;99.90;;;;;;4968493;28;20031;-51
2022/03/24 01:16:26;;;;;;;34.42;24.63;;;5.10;99.90;;;;;;4958936;28;20075;-53
2022/03/24 01:18:51;;;;;;;40.50;26.98;;;5.00;99.90;;;;;;4960822;28;20097;-51
2022/03/24 01:21:17;;;;;;;37.38;26.27;;;5.00;99.90;;;;;;4974394;28;20106;-52
2022/03/24 01:23:45;;;;;;;41.67;26.63;;;4.90;99.90;;;;;;4973756;28;20404;-51
2022/03/24 01:26:11;;;;;;;46.20;28.23;;;4.90;99.90;;;;;;4974026;28;20027;-50
2022/03/24 01:28:37;;;;;;;39.03;25.17;;;4.80;99.90;;;;;;4974229;28;20031;-52
2022/03/24 01:31:03;;;;;;;43.00;27.00;;;4.80;99.90;;;;;;4974138;28;20520;-51
2022/03/24 01:33:28;;;;;;;42.15;26.65;;;4.70;99.90;;;;;;4974106;28;20058;-51
2022/03/24 01:35:54;;;;;;;41.22;25.88;;;4.70;99.90;;;;;;4974038;28;20027;-50
2022/03/24 01:38:22;;;;;;;38.60;24.38;;;4.60;99.90;;;;;;4973693;28;20528;-50
2022/03/24 01:40:48;;;;;;;40.78;26.42;;;4.60;99.90;;;;;;4973617;28;20038;-50
2022/03/24 01:43:14;;;;;;;37.60;26.05;;;4.50;99.90;;;;;;4973894;28;20045;-51
2022/03/24 01:45:40;;;;;;;39.17;25.48;;;4.50;99.90;;;;;;4973768;28;20030;-52
2022/03/24 01:48:08;;;;;;;44.15;27.42;;;4.40;99.90;;;;;;4970749;28;20096;-52
2022/03/24 01:50:39;;;;;;;39.05;25.65;;;4.40;99.90;;;;;;4973700;28;20612;-52
2022/03/24 01:53:05;;;;;;;40.55;25.75;;;4.40;99.90;;;;;;4973442;28;20580;-51
2022/03/24 01:55:33;;;;;;;43.17;26.98;;;4.30;99.90;;;;;;4973751;28;20043;-52
2022/03/24 01:57:59;;;;;;;41.28;26.65;;;4.30;99.90;;;;;;4971843;28;20545;-51
2022/03/24 02:00:24;;;;;;;37.63;25.23;;;4.20;99.90;;;;;;4970467;28;20031;-48
2022/03/24 02:02:51;;;;;;;43.38;26.70;;;4.20;99.90;;;;;;4970088;28;20716;-51
2022/03/24 02:05:16;;;;;;;39.67;25.10;;;4.10;99.90;;;;;;4972001;28;20038;-49
2022/03/24 02:07:42;;;;;;;40.10;27.30;;;4.10;99.90;;;;;;4972823;28;20037;-53
2022/03/24 02:10:08;;;;;;;42.00;25.70;;;4.10;99.90;;;;;;4972622;28;20535;-50
2022/03/24 02:12:34;;;;;;;39.55;26.40;;;4.00;99.90;;;;;;4972281;28;20086;-51
2022/03/24 02:15:00;;;;;;;39.08;26.08;;;4.00;99.90;;;;;;4972497;28;20030;-51
2022/03/24 02:17:30;;;;;;;39.15;25.50;;;3.90;99.90;;;;;;4972831;28;20103;-51
2022/03/24 02:19:57;;;;;;;40.70;25.70;;;3.90;99.90;;;;;;4971285;28;20551;-51
2022/03/24 02:22:24;;;;;;;40.60;27.15;;;3.90;99.90;;;;;;4972321;28;20038;-52
2022/03/24 02:24:50;;;;;;;40.47;27.52;;;3.80;99.90;;;;;;4973030;28;20054;-51
2022/03/24 02:27:16;;;;;;;38.22;24.90;;;3.80;99.90;;;;;;4972712;28;20479;-51
2022/03/24 02:29:41;;;;;;;40.10;25.77;;;3.80;99.90;;;;;;4972923;28;20045;-50
2022/03/24 02:32:08;;;;;;;39.85;24.88;;;3.70;99.90;;;;;;4972655;28;20070;-51
2022/03/24 02:34:38;;;;;;;40.92;25.38;;;3.70;99.90;;;;;;4972077;28;20097;-50
2022/03/24 02:37:07;;;;;;;43.97;26.88;;;3.70;99.90;;;;;;4972723;28;20464;-52
2022/03/24 02:39:34;;;;;;;42.72;25.15;;;3.60;99.90;;;;;;4972298;28;20027;-51
2022/03/24 02:42:00;;;;;;;45.22;27.17;;;3.60;99.90;;;;;;4972019;28;20114;-51
2022/03/24 02:44:30;;;;;;;44.58;27.02;;;3.60;99.90;;;;;;4972183;28;20054;-50
2022/03/24 02:46:57;;;;;;;38.65;25.67;;;3.50;99.90;;;;;;4972774;28;20033;-52
2022/03/24 02:49:25;;;;;;;39.50;25.45;;;3.50;99.90;;;;;;4972443;28;20035;-50
2022/03/24 02:51:55;;;;;;;42.88;26.70;;;3.40;99.90;;;;;;4971458;28;20042;-53
2022/03/24 02:54:22;;;;;;;44.28;27.77;;;3.40;99.90;;;;;;4972216;28;20433;-50
2022/03/24 02:56:48;;;;;;;41.17;27.67;;;3.30;99.90;;;;;;4972815;28;20034;-54
2022/03/24 02:59:15;;;;;;;42.33;26.17;;;3.30;99.90;;;;;;4973497;28;20701;-50
2022/03/24 03:01:50;;;;;;;42.15;28.35;;;3.30;99.90;;;;;;4972233;28;20121;-50
2022/03/24 03:04:16;;;;;;;42.95;27.63;;;3.30;99.90;;;;;;4971633;28;20038;-51
2022/03/24 03:06:42;;;;;;;45.05;27.92;;;3.30;99.90;;;;;;4971945;28;20034;-51
2022/03/24 03:09:08;;;;;;;45.17;27.15;;;3.20;99.90;;;;;;4972362;28;20031;-51
2022/03/24 03:11:33;;;;;;;45.05;26.95;;;3.20;99.90;;;;;;4972308;28;20058;-52
2022/03/24 03:14:00;;;;;;;42.33;27.15;;;3.20;99.90;;;;;;4971788;28;20058;-52
2022/03/24 03:16:26;;;;;;;43.75;28.10;;;3.10;99.90;;;;;;4972116;28;20031;-51
2022/03/24 03:18:53;;;;;;;45.88;27.77;;;3.10;99.90;;;;;;4972207;28;20544;-51
2022/03/24 03:21:19;;;;;;;43.47;27.63;;;3.10;99.90;;;;;;4971687;28;20082;-50
2022/03/24 03:23:45;;;;;;;52.85;28.30;;;3.00;99.90;;;;;;4971775;28;20034;-53
2022/03/24 03:26:12;;;;;;;42.22;26.08;;;3.10;99.90;;;;;;4970286;28;20575;-52
2022/03/24 03:28:39;;;;;;;42.38;25.65;;;3.00;99.90;;;;;;4971429;28;20409;-52
2022/03/24 03:31:05;;;;;;;41.97;26.33;;;3.00;99.90;;;;;;4971915;28;20125;-52
2022/03/24 03:33:34;;;;;;;43.25;27.83;;;3.00;99.90;;;;;;4971754;28;20030;-50
2022/03/24 03:35:59;;;;;;;41.15;26.98;;;2.90;99.90;;;;;;4971498;28;20058;-50
2022/03/24 03:38:26;;;;;;;40.63;26.23;;;2.90;99.90;;;;;;4971824;28;20093;-50
2022/03/24 03:40:53;;;;;;;44.30;27.35;;;2.90;99.90;;;;;;4970917;28;20049;-52
2022/03/24 03:43:18;;;;;;;43.92;25.65;;;2.90;99.90;;;;;;4971340;28;20047;-53
2022/03/24 03:45:45;;;;;;;39.60;25.08;;;2.80;99.90;;;;;;4971499;28;20034;-52
2022/03/24 03:48:11;;;;;;;38.35;26.13;;;2.80;99.90;;;;;;4971555;28;20030;-53
2022/03/24 03:50:38;;;;;;;44.70;27.70;;;2.80;99.90;;;;;;4971502;28;20029;-53
2022/03/24 03:53:04;;;;;;;43.08;28.08;;;2.70;99.90;;;;;;4971076;28;20018;-50
2022/03/24 03:55:30;;;;;;;37.72;24.88;;;2.70;99.90;;;;;;4964922;28;20478;-50
2022/03/24 03:57:56;;;;;;;39.20;25.60;;;2.70;99.90;;;;;;4970079;28;20509;-50
2022/03/24 04:03:06;;;;;;;40.95;26.25;;;2.60;99.90;;;;;;4970838;28;20038;-49
2022/03/24 04:05:32;;;;;;;41.88;27.60;;;2.60;99.90;;;;;;4969559;28;20035;-50
2022/03/24 04:08:00;;;;;;;37.95;25.95;;;2.60;99.90;;;;;;4970334;28;20406;-50
2022/03/24 04:10:27;;;;;;;42.30;25.98;;;2.50;99.90;;;;;;4970688;28;20027;-53
2022/03/24 04:12:55;;;;;;;40.97;26.75;;;2.50;99.90;;;;;;4970399;28;20027;-50
2022/03/24 04:15:24;;;;;;;43.25;26.83;;;2.50;99.90;;;;;;4970671;28;20034;-50
2022/03/24 04:17:52;;;;;;;43.90;27.95;;;2.50;99.90;;;;;;4970891;28;20054;-51
2022/03/24 04:20:21;;;;;;;44.42;26.73;;;2.40;99.90;;;;;;4970705;28;20113;-49
2022/03/24 04:22:54;;;;;;;42.08;25.92;;;2.40;99.90;;;;;;4970348;28;20027;-50
2022/03/24 04:25:22;;;;;;;41.63;26.42;;;2.40;99.90;;;;;;4971429;28;20094;-49
2022/03/24 04:27:49;;;;;;;45.20;27.73;;;2.30;99.90;;;;;;4970548;28;20026;-49
2022/03/24 04:30:15;;;;;;;45.30;27.23;;;2.30;99.90;;;;;;4971250;28;20444;-51
2022/03/24 04:32:41;;;;;;;47.78;27.55;;;2.30;99.90;;;;;;4971528;28;20042;-51
2022/03/24 04:35:11;;;;;;;47.22;29.23;;;2.30;99.90;;;;;;4970122;28;20581;-51
2022/03/24 04:37:37;;;;;;;44.17;27.35;;;2.30;99.90;;;;;;4970317;28;20027;-50
2022/03/24 04:40:05;;;;;;;45.95;28.30;;;2.30;99.90;;;;;;4970573;28;20035;-49
2022/03/24 04:42:31;;;;;;;44.97;28.17;;;2.20;99.90;;;;;;4970211;28;20035;-50
2022/03/24 04:44:58;;;;;;;41.85;25.10;;;2.20;99.90;;;;;;4968909;28;20049;-52
2022/03/24 04:47:24;;;;;;;43.25;27.08;;;2.20;99.90;;;;;;4970317;28;20497;-51
2022/03/24 04:49:50;;;;;;;41.30;25.27;;;2.20;99.90;;;;;;4970543;28;20035;-49
2022/03/24 04:52:15;;;;;;;45.45;27.38;;;2.10;99.90;;;;;;4971267;28;20133;-50
2022/03/24 04:54:41;;;;;;;42.13;27.73;;;2.10;99.90;;;;;;4974537;28;20101;-54
2022/03/24 04:57:07;;;;;;;42.72;25.90;;;2.10;99.90;;;;;;4974242;28;20034;-50
2022/03/24 04:59:33;;;;;;;44.38;26.40;;;2.10;99.90;;;;;;4974251;28;20026;-51
2022/03/24 05:01:58;;;;;;;42.00;27.02;;;2.00;99.90;;;;;;4974466;28;20672;-54
2022/03/24 05:04:24;;;;;;;41.35;26.45;;;2.00;99.90;;;;;;4974110;28;20543;-48
2022/03/24 05:06:53;;;;;;;39.92;26.10;;;2.00;99.90;;;;;;5022761;23;20041;-48
2022/03/24 05:09:19;;;;;;;43.13;26.83;;;2.00;99.90;;;;;;4976524;28;20026;-51
2022/03/24 05:11:44;;;;;;;42.72;26.73;;;2.00;99.90;;;;;;4998248;28;20029;-50
2022/03/24 05:14:11;;;;;;;43.95;27.13;;;1.90;99.90;;;;;;5012785;28;20026;-48
2022/03/24 05:16:37;;;;;;;47.38;27.75;;;1.90;99.90;;;;;;5013024;28;20036;-51
2022/03/24 05:19:04;;;;;;;37.75;25.80;;;1.90;99.90;;;;;;5011662;28;20030;-50
2022/03/24 05:21:33;;;;;;;42.97;27.10;;;1.90;99.90;;;;;;5012917;28;20030;-47
2022/03/24 05:24:00;;;;;;;43.28;26.02;;;1.90;99.90;;;;;;5011457;28;20021;-51
2022/03/24 05:26:25;;;;;;;42.17;27.77;;;1.90;99.90;;;;;;5012940;28;20096;-50
2022/03/24 05:28:52;;;;;;;44.30;27.40;;;1.80;99.90;;;;;;4995109;28;20018;-51
2022/03/24 05:31:18;;;;;;;42.20;27.15;;;1.80;99.90;;;;;;4993452;28;20035;-50
2022/03/24 05:33:44;;;;;;;40.53;26.75;;;1.80;99.90;;;;;;4992989;28;20018;-49
2022/03/24 05:36:11;;;;;;;39.40;26.02;;;1.80;99.90;;;;;;4993309;28;20031;-50
2022/03/24 05:38:37;;;;;;;43.97;28.02;;;1.80;99.90;;;;;;4992781;28;20027;-51
2022/03/24 05:41:03;;;;;;;45.47;26.65;;;1.80;99.90;;;;;;4993401;28;20044;-50
2022/03/24 05:43:30;;;;;;;45.45;27.40;;;1.80;99.90;;;;;;5009142;28;20025;-47
2022/03/24 05:45:56;;;;;;;44.40;28.23;;;1.80;99.90;;;;;;5013157;28;20026;-51
2022/03/24 05:48:21;;;;;;;49.22;27.83;;;1.80;99.90;;;;;;5012289;28;20014;-51
2022/03/24 05:50:48;;;;;;;44.13;26.55;;;1.90;99.90;;;;;;5012271;28;20033;-51
2022/03/24 05:53:13;;;;;;;42.78;27.60;;;1.80;99.90;;;;;;5010814;28;20030;-47
2022/03/24 05:55:40;;;;;;;49.05;28.25;;;1.90;99.90;;;;;;5012614;28;20021;-49
2022/03/24 05:58:06;;;;;;;43.17;27.77;;;1.90;99.90;;;;;;5011066;28;20014;-50
2022/03/24 06:00:34;;;;;;;45.03;27.80;;;1.90;99.90;;;;;;4994091;28;20080;-52
2022/03/24 06:03:01;;;;;;;42.13;27.63;;;1.90;99.90;;;;;;4993395;28;20664;-52
2022/03/24 06:05:27;;;;;;;51.17;27.98;;;1.90;99.90;;;;;;4991143;28;20481;-51
2022/03/24 06:07:53;;;;;;;46.10;28.15;;;2.00;99.90;;;;;;5006574;28;20140;-52
2022/03/24 06:10:19;;;;;;;47.97;27.83;;;2.00;99.90;;;;;;5003959;28;20394;-49
2022/03/24 06:12:47;;;;;;;43.08;28.27;;;2.00;99.90;;;;;;5010399;28;20026;-50
2022/03/24 06:15:13;;;;;;;44.10;27.25;;;2.10;99.90;;;;;;5010536;28;20395;-51
2022/03/24 06:17:39;;;;;;;43.70;26.98;;;2.10;99.90;;;;;;5011318;28;20113;-52
2022/03/24 06:20:08;;;;;;;45.08;29.40;;;2.10;99.90;;;;;;5011884;28;20459;-50
2022/03/24 06:22:53;;;;;;;49.97;29.45;;;2.20;99.90;;;;;;5011945;28;20108;-50
2022/03/24 06:25:20;;;;;;;44.35;30.10;;;2.20;99.90;;;;;;5011126;28;20543;-51
2022/03/24 06:27:52;;;;;;;43.90;27.05;;;2.30;99.90;;;;;;5011654;28;20044;-52
2022/03/24 06:30:19;;;;;;;47.38;29.80;;;2.30;99.90;;;;;;5008291;28;20018;-49
2022/03/24 06:32:45;;;;;;;48.80;30.10;;;2.40;99.90;;;;;;4992950;28;20504;-48
2022/03/24 06:35:11;;;;;;;55.13;32.80;;;2.40;99.90;;;;;;5010726;28;20079;-50
2022/03/24 06:37:40;;;;;;;44.78;30.45;;;2.50;99.90;;;;;;5005637;28;20033;-51
2022/03/24 06:40:07;;;;;;;51.85;31.63;;;2.60;99.90;;;;;;5011779;28;20452;-49
2022/03/24 06:42:33;;;;;;;51.25;32.17;;;2.70;99.90;;;;;;5009586;28;20040;-50
2022/03/24 06:44:59;;;;;;;50.08;31.33;;;2.80;99.90;;;;;;5011106;28;20033;-53
2022/03/24 06:47:24;;;;;;;50.55;32.92;;;2.90;99.90;;;;;;5011143;28;20030;-52
2022/03/24 06:49:50;;;;;;;48.95;32.85;;;3.00;99.90;;;;;;5011136;28;20072;-48
2022/03/24 06:52:15;;;;;;;51.75;33.33;;;3.20;99.90;;;;;;5011469;28;20034;-48
2022/03/24 06:54:41;;;;;;;51.40;32.80;;;3.30;99.90;;;;;;5011388;28;20109;-50
2022/03/24 06:57:07;;;;;;;49.78;32.20;;;3.40;99.90;;;;;;5001727;28;20076;-49
2022/03/24 06:59:33;;;;;;;57.55;33.78;;;3.50;99.90;;;;;;4992193;28;20046;-51
2022/03/24 07:01:59;;;;;;;47.25;31.60;;;3.60;99.90;;;;;;4991759;28;20466;-50
2022/03/24 07:04:24;;;;;;;51.55;32.15;;;3.70;99.90;;;;;;5000372;28;20388;-49
2022/03/24 07:06:50;;;;;;;50.47;30.55;;;3.80;99.90;;;;;;4995970;28;20088;-47
2022/03/24 07:09:15;;;;;;;49.20;31.35;;;3.90;99.90;;;;;;4991811;28;20023;-49
2022/03/24 07:11:41;;;;;;;47.35;31.13;;;4.00;99.90;;;;;;4995281;28;20110;-49
2022/03/24 07:14:07;;;;;;;55.28;31.50;;;4.10;99.90;;;;;;4990331;28;20041;-50
2022/03/24 07:16:32;;;;;;;50.08;32.35;;;4.30;99.90;;;;;;4990818;28;20081;-49
2022/03/24 07:18:58;;;;;;;50.97;32.13;;;4.40;99.90;;;;;;4991388;28;20497;-49
2022/03/24 07:21:24;;;;;;;47.15;31.25;;;4.50;99.90;;;;;;4991093;28;20397;-49
2022/03/24 07:23:49;;;;;;;48.70;30.83;;;4.70;99.90;;;;;;4990122;28;20465;-50
2022/03/24 07:26:15;;;;;;;44.95;30.65;;;4.80;99.90;;;;;;4991116;28;20070;-49
2022/03/24 07:28:40;;;;;;;49.13;30.65;;;5.00;99.90;;;;;;4991408;28;20041;-51
2022/03/24 07:31:16;;;;;;;43.80;29.15;;;5.20;99.90;;;;;;4990391;28;20026;-49
2022/03/24 07:33:43;;;;;;;44.30;29.33;;;5.30;99.90;;;;;;4990986;28;20022;-49
2022/03/24 07:36:09;;;;;;;46.35;28.65;;;5.40;99.90;;;;;;4989890;28;20508;-48
2022/03/24 07:38:35;;;;;;;48.08;30.38;;;5.60;99.90;;;;;;4990306;28;20121;-48
2022/03/24 07:41:01;;;;;;;50.20;30.23;;;5.80;99.90;;;;;;4991049;28;20026;-49
2022/03/24 07:43:27;;;;;;;45.55;28.80;;;5.90;99.90;;;;;;4991009;28;20026;-52
2022/03/24 07:45:53;;;;;;;45.40;29.20;;;6.10;99.90;;;;;;4991178;28;20034;-49
2022/03/24 07:48:25;;;;;;;49.63;28.83;;;6.30;99.90;;;;;;4990688;28;20026;-50
2022/03/24 07:50:53;;;;;;;44.80;28.75;;;6.50;99.90;;;;;;4990625;28;20027;-50
2022/03/24 07:53:22;;;;;;;43.47;28.52;;;6.80;99.90;;;;;;4988773;28;20034;-51
2022/03/24 07:55:48;;;;;;;43.58;30.17;;;7.10;99.90;;;;;;4990680;28;20049;-53
2022/03/24 07:58:16;;;;;;;43.00;28.45;;;7.50;99.90;;;;;;4990682;28;20037;-49
2022/03/24 08:00:43;;;;;;;44.90;28.73;;;7.80;99.90;;;;;;4994447;28;20034;-49
2022/03/24 08:03:17;;;;;;;43.40;28.70;;;8.10;99.90;;;;;;5009857;28;20021;-53
2022/03/24 08:05:46;;;;;;;48.13;29.60;;;8.40;99.90;;;;;;5009377;28;20156;-50
2022/03/24 08:08:11;;;;;;;42.97;28.42;;;8.70;99.90;;;;;;5008456;28;20267;-51
2022/03/24 08:10:42;;;;;;;36.88;27.52;;;9.00;99.90;;;;;;4996968;28;20034;-53
2022/03/24 08:13:13;;;;;;;43.83;28.38;;;9.30;99.90;;;;;;4990058;28;20042;-52
2022/03/24 08:15:39;;;;;;;41.83;28.23;;;9.50;99.90;;;;;;4989764;28;20403;-51
2022/03/24 08:18:06;;;;;;;43.75;27.73;;;9.70;99.90;;;;;;4997911;28;20026;-52
2022/03/24 08:20:32;;;;;;;42.85;27.70;;;9.90;99.90;;;;;;5010171;28;20037;-51
2022/03/24 08:22:58;;;;;;;38.50;26.67;;;10.10;99.90;;;;;;5008284;28;20567;-49
2022/03/24 08:25:24;;;;;;;43.97;28.30;;;10.20;99.90;;;;;;5010145;28;20026;-52
2022/03/24 08:27:50;;;;;;;41.22;27.83;;;10.40;99.90;;;;;;5008261;28;20025;-51
2022/03/24 08:30:16;;;;;;;41.90;27.92;;;10.70;99.90;;;;;;5009830;28;20018;-54
2022/03/24 08:32:42;;;;;;;41.30;27.45;;;10.90;99.90;;;;;;5009061;28;20030;-49
2022/03/24 08:35:08;;;;;;;35.40;26.17;;;11.10;99.90;;;;;;5009051;28;20112;-52
2022/03/24 08:37:34;;;;;;;42.30;26.80;;;11.30;99.90;;;;;;5008139;28;20041;-56
2022/03/24 08:39:59;;;;;;;39.47;25.90;;;11.60;99.90;;;;;;5009698;28;20369;-54
2022/03/24 08:42:25;;;;;;;38.05;26.60;;;11.80;99.90;;;;;;5007689;28;20400;-52
2022/03/24 08:44:51;;;;;;;44.05;27.20;;;11.90;99.90;;;;;;5009562;28;20101;-51
2022/03/24 08:47:16;;;;;;;40.80;26.02;;;12.00;99.90;;;;;;5007881;28;20030;-51
2022/03/24 08:49:42;;;;;;;38.88;26.15;;;12.20;98.20;;;;;;5009575;28;20648;-52
2022/03/24 08:52:09;;;;;;;39.33;27.40;;;12.40;98.10;;;;;;4997384;28;20038;-50
2022/03/24 08:54:34;;;;;;;38.33;26.23;;;12.60;97.20;;;;;;4990002;28;20050;-56
2022/03/24 08:57:01;;;;;;;36.97;25.27;;;12.80;94.10;;;;;;4990642;28;20053;-49
2022/03/24 08:59:27;;;;;;;37.22;25.20;;;13.00;95.40;;;;;;4990275;28;20026;-51
2022/03/24 09:01:52;;;;;;;40.40;25.27;;;13.20;96.00;;;;;;4990911;28;20027;-50
2022/03/24 09:04:20;;;;;;;39.30;26.25;;;13.40;94.20;;;;;;4989851;28;20026;-54
2022/03/24 09:06:48;;;;;;;38.38;25.20;;;13.70;95.70;;;;;;4989606;28;20045;-52
2022/03/24 09:09:14;;;;;;;37.33;27.10;;;14.00;91.70;;;;;;4989761;28;20026;-51
2022/03/24 09:11:40;;;;;;;34.97;24.30;;;14.20;92.20;;;;;;4990633;28;20038;-55
2022/03/24 09:14:06;;;;;;;44.65;26.27;;;14.50;91.70;;;;;;4989586;28;20046;-52
2022/03/24 09:16:32;;;;;;;41.83;27.60;;;14.60;90.70;;;;;;4989544;28;20097;-52
2022/03/24 09:18:58;;;;;;;34.58;26.98;;;14.80;90.00;;;;;;4989738;28;20033;-53
2022/03/24 09:21:24;;;;;;;36.42;25.02;;;15.00;87.50;;;;;;4989411;28;20405;-50
2022/03/24 09:23:49;;;;;;;38.83;26.73;;;15.10;86.40;;;;;;4990035;28;20027;-50
2022/03/24 09:26:15;;;;;;;34.83;24.20;;;15.00;84.20;;;;;;5008881;28;20048;-53
2022/03/24 09:28:41;;;;;;;35.40;23.88;;;14.80;83.80;;;;;;5009162;28;20022;-54
2022/03/24 09:31:06;;;;;;;33.83;23.08;;;14.60;86.90;;;;;;4974252;28;20456;-51
2022/03/24 09:33:32;;;;;;;38.53;23.80;;;14.50;83.70;;;;;;4989667;28;20050;-53
2022/03/24 09:35:58;;;;;;;36.20;24.27;;;14.60;83.10;;;;;;4990560;28;20030;-54
2022/03/24 09:38:23;;;;;;;34.40;23.92;;;14.70;80.60;;;;;;4991206;28;20667;-57
2022/03/24 09:40:51;;;;;;;38.75;23.95;;;14.90;81.20;;;;;;5010309;28;20030;-52
2022/03/24 09:43:18;;;;;;;35.45;23.05;;;15.00;79.40;;;;;;5011806;28;20424;-52
2022/03/24 09:45:47;;;;;;;34.83;24.10;;;15.20;81.50;;;;;;5007060;28;20070;-54
2022/03/24 09:48:15;;;;;;;38.92;25.77;;;15.20;78.40;;;;;;5000765;28;20417;-56
2022/03/24 09:50:44;;;;;;;35.92;24.40;;;15.10;79.60;;;;;;5012859;28;20026;-54
2022/03/24 09:53:11;;;;;;;37.70;24.77;;;15.00;79.20;;;;;;5012824;28;20022;-53
2022/03/24 09:55:37;;;;;;;36.80;24.80;;;15.00;80.70;;;;;;5012528;28;20014;-54
2022/03/24 09:58:06;;;;;;;39.92;26.05;;;15.10;81.00;;;;;;4998251;28;20049;-50
2022/03/24 10:00:32;;;;;;;38.83;25.67;;;15.30;84.50;;;;;;4992016;28;20014;-53
2022/03/24 10:03:17;;;;;;;34.50;25.40;;;15.50;79.10;;;;;;5006401;28;20113;-52
2022/03/24 10:05:59;;;;;;;40.60;25.77;;;15.60;80.70;;;;;;5012500;28;20018;-52
2022/03/24 10:08:27;;;;;;;39.83;25.70;;;15.80;74.60;;;;;;5010372;28;20646;-50
2022/03/24 10:10:58;;;;;;;36.53;25.38;;;15.70;72.60;;;;;;5012449;28;20026;-50
2022/03/24 10:13:40;;;;;;;40.10;23.17;;;15.70;74.30;;;;;;5009890;28;20531;-53
2022/03/24 10:16:06;;;;;;;35.75;23.90;;;15.60;75.60;;;;;;5009762;28;20028;-52
2022/03/24 10:18:32;;;;;;;33.92;22.90;;;15.80;72.90;;;;;;5012580;28;20392;-52
2022/03/24 10:21:00;;;;;;;36.70;24.10;;;15.80;74.10;;;;;;5011507;28;20070;-49
2022/03/24 10:23:26;;;;;;;36.20;24.35;;;15.80;74.20;;;;;;5009935;28;20112;-54
2022/03/24 10:25:52;;;;;;;32.67;23.45;;;15.80;72.30;;;;;;5010576;28;20152;-50
2022/03/24 10:28:18;;;;;;;31.27;23.00;;;15.80;72.30;;;;;;5011653;28;20026;-50
2022/03/24 10:30:50;;;;;;;34.10;23.70;;;16.00;74.50;;;;;;4996214;28;20030;-53
2022/03/24 10:33:45;;;;;;;36.42;23.60;;;16.10;74.40;;;;;;4992109;28;20022;-52
2022/03/24 10:36:17;;;;;;;35.20;23.30;;;16.20;72.30;;;;;;4997419;28;20515;-52
2022/03/24 10:38:47;;;;;;;36.65;25.17;;;16.20;73.10;;;;;;5011780;28;20022;-52
2022/03/24 10:41:14;;;;;;;30.27;21.92;;;16.30;70.90;;;;;;5011741;28;20033;-53
2022/03/24 10:43:39;;;;;;;36.65;23.20;;;16.30;71.40;;;;;;5011237;28;20022;-50
2022/03/24 10:46:16;;;;;;;33.40;22.88;;;16.30;72.20;;;;;;5011618;28;20099;-51
2022/03/24 10:48:42;;;;;;;32.33;22.73;;;16.30;72.20;;;;;;5011872;28;20496;-53
2022/03/24 10:51:08;;;;;;;35.28;23.17;;;16.30;70.70;;;;;;5010500;28;20535;-52
2022/03/24 10:53:42;;;;;;;30.48;22.05;;;16.10;69.30;;;;;;5011353;28;20037;-53
2022/03/24 10:56:14;;;;;;;34.33;24.13;;;16.10;72.20;;;;;;5009495;28;20025;-53
2022/03/24 10:58:47;;;;;;;37.13;24.20;;;16.10;69.90;;;;;;5011720;28;20396;-54
2022/03/24 11:01:17;;;;;;;35.55;22.35;;;16.10;70.70;;;;;;5010157;28;20120;-50
2022/03/24 11:03:44;;;;;;;33.22;22.75;;;16.10;70.00;;;;;;5011189;28;20018;-52
2022/03/24 11:06:14;;;;;;;34.70;21.83;;;16.20;70.90;;;;;;5033688;22;20053;-47
2022/03/24 11:08:42;;;;;;;33.25;21.95;;;16.30;73.30;;;;;;5010431;28;20056;-47
2022/03/24 11:11:13;;;;;;;36.13;22.38;;;16.50;69.80;;;;;;5011091;28;20036;-46
2022/03/24 11:13:59;;;;;;;35.17;23.98;;;16.50;71.30;;;;;;5011209;28;20025;-47
2022/03/24 11:16:29;;;;;;;32.08;21.58;;;16.50;69.80;;;;;;5016837;28;20029;-49
2022/03/24 11:18:58;;;;;;;30.17;21.83;;;16.40;69.10;;;;;;5029745;28;20029;-49
2022/03/24 11:21:39;;;;;;;33.35;23.08;;;16.50;71.10;;;;;;5030919;28;20033;-44
2022/03/24 11:24:05;;;;;;;29.75;20.15;;;16.50;69.40;;;;;;5030401;28;20013;-46
2022/03/24 11:26:33;;;;;;;34.28;21.63;;;16.60;70.00;;;;;;5030678;28;20555;-46
2022/03/24 11:28:59;;;;;;;28.63;20.73;;;16.60;71.80;;;;;;5030752;28;20025;-47
2022/03/24 11:31:28;;;;;;;29.73;21.08;;;16.60;68.00;;;;;;5031897;28;20034;-47
2022/03/24 11:33:56;;;;;;;36.30;22.38;;;16.60;68.70;;;;;;5047253;28;20036;-47
2022/03/24 11:36:23;;;;;;;32.15;22.15;;;16.60;69.50;;;;;;5026841;28;20025;-50
2022/03/24 11:38:51;;;;;;;30.67;20.85;;;16.60;69.00;;;;;;5029789;28;20372;-47
2022/03/24 11:41:38;;;;;;;31.33;21.63;;;16.50;67.30;;;;;;5034750;28;20075;-48
2022/03/24 11:44:34;;;;;;;34.47;22.10;;;16.50;68.00;;;;;;5020442;28;20510;-47
2022/03/24 11:47:00;;;;;;;30.85;21.52;;;16.50;69.60;;;;;;5032002;28;20025;-48
2022/03/24 11:49:30;;;;;;;33.40;22.30;;;16.60;67.50;;;;;;5035493;28;20021;-50
2022/03/24 11:51:59;;;;;;;33.13;22.45;;;16.60;68.50;;;;;;5035293;28;20021;-45
2022/03/24 11:54:31;;;;;;;33.85;22.17;;;16.50;66.10;;;;;;5035580;28;20505;-50
2022/03/24 11:57:21;;;;;;;36.72;23.13;;;16.40;67.00;;;;;;5050043;28;20088;-47
2022/03/24 12:00:11;;;;;;;31.88;22.58;;;16.20;66.20;;;;;;5017834;28;20651;-48
2022/03/24 12:02:37;;;;;;;36.90;24.33;;;16.10;67.60;;;;;;5029025;28;20037;-48
2022/03/24 12:05:03;;;;;;;33.78;23.15;;;16.00;67.40;;;;;;5030234;28;20025;-49
2022/03/24 12:07:30;;;;;;;31.00;21.90;;;16.00;68.30;;;;;;5030717;28;20504;-47
2022/03/24 12:10:09;;;;;;;31.13;22.90;;;16.10;69.50;;;;;;5048871;28;20029;-49
2022/03/24 12:12:37;;;;;;;33.65;23.60;;;16.30;69.80;;;;;;5048239;28;20029;-48
2022/03/24 12:15:17;;;;;;;39.75;26.00;;;16.40;67.70;;;;;;5035845;28;20030;-47
2022/03/24 12:18:07;;;;;;;30.70;23.25;;;16.50;68.10;;;;;;5024916;28;20027;-49
2022/03/24 12:20:45;;;;;;;29.30;21.40;;;16.60;68.60;;;;;;5017389;28;20474;-47
2022/03/24 12:23:11;;;;;;;33.97;23.23;;;16.70;68.90;;;;;;5025898;28;20029;-50
2022/03/24 12:25:37;;;;;;;38.00;24.73;;;16.70;66.50;;;;;;5023196;28;20479;-50
2022/03/24 12:28:08;;;;;;;36.00;23.30;;;16.70;68.00;;;;;;5048836;28;20395;-50
2022/03/24 12:30:49;;;;;;;35.45;23.00;;;16.80;68.10;;;;;;5047922;28;20017;-48
2022/03/24 12:33:18;;;;;;;30.60;22.02;;;16.90;67.40;;;;;;5033509;28;20029;-51
2022/03/24 12:35:47;;;;;;;34.58;23.30;;;17.00;69.20;;;;;;5034092;28;20037;-50
2022/03/24 12:38:30;;;;;;;35.35;22.25;;;17.10;67.80;;;;;;5044132;28;20033;-50